sensor_id;sensor_type;location;lat;lon;timestamp;P1;durP1;ratioP1;P2;durP2;ratioP2
44696;SDS011;57264;47.480;19.354;2023-04-03T00:00:06;7.93;;;7.23;;
44696;SDS011;57264;47.480;19.354;2023-04-03T00:02:32;7.90;;;7.30;;
44696;SDS011;57264;47.480;19.354;2023-04-03T00:04:58;8.40;;;7.67;;
44696;SDS011;57264;47.480;19.354;2023-04-03T00:07:23;12.40;;;11.50;;
44696;SDS011;57264;47.480;19.354;2023-04-03T00:09:49;10.57;;;9.57;;
44696;SDS011;57264;47.480;19.354;2023-04-03T00:12:14;10.77;;;9.87;;
44696;SDS011;57264;47.480;19.354;2023-04-03T00:14:40;8.83;;;8.13;;
44696;SDS011;57264;47.480;19.354;2023-04-03T00:17:06;13.50;;;12.40;;
44696;SDS011;57264;47.480;19.354;2023-04-03T00:19:31;10.97;;;10.00;;
44696;SDS011;57264;47.480;19.354;2023-04-03T00:21:57;13.63;;;12.63;;
44696;SDS011;57264;47.480;19.354;2023-04-03T00:24:22;12.60;;;11.50;;
44696;SDS011;57264;47.480;19.354;2023-04-03T00:26:48;12.33;;;10.63;;
44696;SDS011;57264;47.480;19.354;2023-04-03T00:29:13;12.33;;;11.33;;
44696;SDS011;57264;47.480;19.354;2023-04-03T00:31:39;10.37;;;9.47;;
44696;SDS011;57264;47.480;19.354;2023-04-03T00:34:05;11.00;;;10.02;;
44696;SDS011;57264;47.480;19.354;2023-04-03T00:36:31;9.17;;;8.27;;
44696;SDS011;57264;47.480;19.354;2023-04-03T00:38:56;8.67;;;7.87;;
44696;SDS011;57264;47.480;19.354;2023-04-03T00:41:22;10.20;;;9.23;;
44696;SDS011;57264;47.480;19.354;2023-04-03T00:43:47;9.90;;;8.53;;
44696;SDS011;57264;47.480;19.354;2023-04-03T00:46:13;9.30;;;8.30;;
44696;SDS011;57264;47.480;19.354;2023-04-03T00:48:42;9.53;;;8.73;;
44696;SDS011;57264;47.480;19.354;2023-04-03T00:51:11;9.07;;;8.18;;
44696;SDS011;57264;47.480;19.354;2023-04-03T00:53:41;10.95;;;9.95;;
44696;SDS011;57264;47.480;19.354;2023-04-03T00:56:12;11.00;;;10.07;;
44696;SDS011;57264;47.480;19.354;2023-04-03T00:58:45;11.18;;;10.15;;
44696;SDS011;57264;47.480;19.354;2023-04-03T01:04:31;11.63;;;10.43;;
44696;SDS011;57264;47.480;19.354;2023-04-03T01:07:04;11.82;;;10.73;;
44696;SDS011;57264;47.480;19.354;2023-04-03T01:09:33;10.27;;;9.48;;
44696;SDS011;57264;47.480;19.354;2023-04-03T01:12:13;11.10;;;10.15;;
44696;SDS011;57264;47.480;19.354;2023-04-03T01:14:41;12.65;;;11.38;;
44696;SDS011;57264;47.480;19.354;2023-04-03T01:22:59;15.57;;;14.18;;
44696;SDS011;57264;47.480;19.354;2023-04-03T01:25:48;10.65;;;9.63;;
44696;SDS011;57264;47.480;19.354;2023-04-03T01:28:17;9.40;;;8.43;;
44696;SDS011;57264;47.480;19.354;2023-04-03T01:33:58;11.43;;;10.32;;
44696;SDS011;57264;47.480;19.354;2023-04-03T01:36:26;11.77;;;10.47;;
44696;SDS011;57264;47.480;19.354;2023-04-03T01:38:54;10.05;;;9.15;;
44696;SDS011;57264;47.480;19.354;2023-04-03T01:41:21;12.40;;;11.30;;
44696;SDS011;57264;47.480;19.354;2023-04-03T01:43:47;12.30;;;11.30;;
44696;SDS011;57264;47.480;19.354;2023-04-03T01:46:14;13.30;;;12.25;;
44696;SDS011;57264;47.480;19.354;2023-04-03T01:48:40;10.13;;;9.23;;
44696;SDS011;57264;47.480;19.354;2023-04-03T01:51:06;15.47;;;14.17;;
44696;SDS011;57264;47.480;19.354;2023-04-03T01:53:31;15.60;;;14.40;;
44696;SDS011;57264;47.480;19.354;2023-04-03T01:55:57;12.73;;;11.73;;
44696;SDS011;57264;47.480;19.354;2023-04-03T01:58:22;14.03;;;12.73;;
44696;SDS011;57264;47.480;19.354;2023-04-03T02:00:48;11.73;;;10.60;;
44696;SDS011;57264;47.480;19.354;2023-04-03T02:03:13;13.03;;;11.93;;
44696;SDS011;57264;47.480;19.354;2023-04-03T02:05:40;16.98;;;15.50;;
44696;SDS011;57264;47.480;19.354;2023-04-03T02:08:05;12.40;;;11.30;;
44696;SDS011;57264;47.480;19.354;2023-04-03T02:10:31;15.50;;;14.10;;
44696;SDS011;57264;47.480;19.354;2023-04-03T02:12:56;15.63;;;14.33;;
44696;SDS011;57264;47.480;19.354;2023-04-03T02:15:22;10.57;;;9.57;;
44696;SDS011;57264;47.480;19.354;2023-04-03T02:17:47;13.83;;;12.43;;
44696;SDS011;57264;47.480;19.354;2023-04-03T02:20:13;15.57;;;14.13;;
44696;SDS011;57264;47.480;19.354;2023-04-03T02:22:38;13.67;;;12.47;;
44696;SDS011;57264;47.480;19.354;2023-04-03T02:25:04;13.10;;;11.83;;
44696;SDS011;57264;47.480;19.354;2023-04-03T02:27:30;13.77;;;12.47;;
44696;SDS011;57264;47.480;19.354;2023-04-03T02:29:57;13.73;;;12.52;;
44696;SDS011;57264;47.480;19.354;2023-04-03T02:32:22;13.00;;;11.73;;
44696;SDS011;57264;47.480;19.354;2023-04-03T02:34:48;13.53;;;12.33;;
44696;SDS011;57264;47.480;19.354;2023-04-03T02:37:13;10.07;;;9.07;;
44696;SDS011;57264;47.480;19.354;2023-04-03T02:39:39;10.77;;;9.77;;
44696;SDS011;57264;47.480;19.354;2023-04-03T02:42:05;13.23;;;12.03;;
44696;SDS011;57264;47.480;19.354;2023-04-03T02:44:30;11.60;;;10.50;;
44696;SDS011;57264;47.480;19.354;2023-04-03T02:46:56;9.77;;;8.77;;
44696;SDS011;57264;47.480;19.354;2023-04-03T02:49:21;8.57;;;7.73;;
44696;SDS011;57264;47.480;19.354;2023-04-03T02:51:47;8.80;;;7.83;;
44696;SDS011;57264;47.480;19.354;2023-04-03T02:54:12;10.60;;;9.60;;
44696;SDS011;57264;47.480;19.354;2023-04-03T02:56:38;9.97;;;8.97;;
44696;SDS011;57264;47.480;19.354;2023-04-03T02:59:04;9.43;;;8.53;;
44696;SDS011;57264;47.480;19.354;2023-04-03T03:01:30;9.03;;;8.13;;
44696;SDS011;57264;47.480;19.354;2023-04-03T03:03:58;8.75;;;7.95;;
44696;SDS011;57264;47.480;19.354;2023-04-03T03:06:24;10.00;;;9.00;;
44696;SDS011;57264;47.480;19.354;2023-04-03T03:08:50;10.33;;;9.33;;
44696;SDS011;57264;47.480;19.354;2023-04-03T03:11:15;8.50;;;7.70;;
44696;SDS011;57264;47.480;19.354;2023-04-03T03:13:41;8.57;;;7.73;;
44696;SDS011;57264;47.480;19.354;2023-04-03T03:16:06;9.73;;;8.07;;
44696;SDS011;57264;47.480;19.354;2023-04-03T03:18:32;8.73;;;7.87;;
44696;SDS011;57264;47.480;19.354;2023-04-03T03:20:59;8.15;;;7.40;;
44696;SDS011;57264;47.480;19.354;2023-04-03T03:23:26;8.38;;;7.57;;
44696;SDS011;57264;47.480;19.354;2023-04-03T03:25:56;8.23;;;7.32;;
44696;SDS011;57264;47.480;19.354;2023-04-03T03:28:27;9.38;;;8.45;;
44696;SDS011;57264;47.480;19.354;2023-04-03T03:30:53;8.68;;;7.72;;
44696;SDS011;57264;47.480;19.354;2023-04-03T03:33:18;10.60;;;8.63;;
44696;SDS011;57264;47.480;19.354;2023-04-03T03:35:44;10.77;;;9.37;;
44696;SDS011;57264;47.480;19.354;2023-04-03T03:38:10;7.93;;;7.20;;
44696;SDS011;57264;47.480;19.354;2023-04-03T03:40:35;8.57;;;7.70;;
44696;SDS011;57264;47.480;19.354;2023-04-03T03:43:01;7.53;;;6.83;;
44696;SDS011;57264;47.480;19.354;2023-04-03T03:45:27;9.00;;;8.10;;
44696;SDS011;57264;47.480;19.354;2023-04-03T03:47:52;8.80;;;7.90;;
44696;SDS011;57264;47.480;19.354;2023-04-03T03:50:18;8.63;;;7.43;;
44696;SDS011;57264;47.480;19.354;2023-04-03T03:52:43;9.20;;;8.23;;
44696;SDS011;57264;47.480;19.354;2023-04-03T03:55:09;8.02;;;6.72;;
44696;SDS011;57264;47.480;19.354;2023-04-03T03:57:35;8.83;;;7.93;;
44696;SDS011;57264;47.480;19.354;2023-04-03T04:00:01;8.83;;;8.03;;
44696;SDS011;57264;47.480;19.354;2023-04-03T04:02:28;8.30;;;7.40;;
44696;SDS011;57264;47.480;19.354;2023-04-03T04:04:53;7.57;;;6.77;;
44696;SDS011;57264;47.480;19.354;2023-04-03T04:07:19;7.63;;;6.20;;
44696;SDS011;57264;47.480;19.354;2023-04-03T04:09:44;7.67;;;6.90;;
44696;SDS011;57264;47.480;19.354;2023-04-03T04:12:10;7.37;;;6.67;;
44696;SDS011;57264;47.480;19.354;2023-04-03T04:14:35;8.97;;;7.47;;
44696;SDS011;57264;47.480;19.354;2023-04-03T04:17:01;7.60;;;6.70;;
44696;SDS011;57264;47.480;19.354;2023-04-03T04:19:27;8.38;;;7.68;;
44696;SDS011;57264;47.480;19.354;2023-04-03T04:21:53;6.85;;;5.82;;
44696;SDS011;57264;47.480;19.354;2023-04-03T04:24:18;7.03;;;6.20;;
44696;SDS011;57264;47.480;19.354;2023-04-03T04:26:44;8.17;;;7.30;;
44696;SDS011;57264;47.480;19.354;2023-04-03T04:29:10;6.87;;;5.93;;
44696;SDS011;57264;47.480;19.354;2023-04-03T04:31:35;7.60;;;6.63;;
44696;SDS011;57264;47.480;19.354;2023-04-03T04:34:01;7.77;;;7.07;;
44696;SDS011;57264;47.480;19.354;2023-04-03T04:36:27;6.57;;;5.87;;
44696;SDS011;57264;47.480;19.354;2023-04-03T04:38:52;7.97;;;7.17;;
44696;SDS011;57264;47.480;19.354;2023-04-03T04:41:21;8.03;;;6.93;;
44696;SDS011;57264;47.480;19.354;2023-04-03T04:43:51;7.28;;;6.57;;
44696;SDS011;57264;47.480;19.354;2023-04-03T04:46:17;7.32;;;6.72;;
44696;SDS011;57264;47.480;19.354;2023-04-03T04:48:43;8.52;;;7.70;;
44696;SDS011;57264;47.480;19.354;2023-04-03T04:51:10;8.10;;;7.30;;
44696;SDS011;57264;47.480;19.354;2023-04-03T04:53:36;7.35;;;6.57;;
44696;SDS011;57264;47.480;19.354;2023-04-03T04:56:02;8.68;;;7.88;;
44696;SDS011;57264;47.480;19.354;2023-04-03T04:58:28;6.73;;;5.77;;
44696;SDS011;57264;47.480;19.354;2023-04-03T05:01:00;9.70;;;6.37;;
44696;SDS011;57264;47.480;19.354;2023-04-03T05:03:26;6.88;;;6.18;;
44696;SDS011;57264;47.480;19.354;2023-04-03T05:05:51;7.57;;;6.30;;
44696;SDS011;57264;47.480;19.354;2023-04-03T05:08:17;6.13;;;5.40;;
44696;SDS011;57264;47.480;19.354;2023-04-03T05:10:44;8.40;;;7.17;;
44696;SDS011;57264;47.480;19.354;2023-04-03T05:13:11;6.07;;;5.32;;
44696;SDS011;57264;47.480;19.354;2023-04-03T05:15:36;7.37;;;6.17;;
44696;SDS011;57264;47.480;19.354;2023-04-03T05:18:02;5.40;;;4.93;;
44696;SDS011;57264;47.480;19.354;2023-04-03T05:20:28;6.23;;;5.27;;
44696;SDS011;57264;47.480;19.354;2023-04-03T05:22:53;5.73;;;5.13;;
44696;SDS011;57264;47.480;19.354;2023-04-03T05:25:19;6.27;;;5.30;;
44696;SDS011;57264;47.480;19.354;2023-04-03T05:27:44;6.30;;;5.03;;
44696;SDS011;57264;47.480;19.354;2023-04-03T05:30:10;10.57;;;5.77;;
44696;SDS011;57264;47.480;19.354;2023-04-03T05:32:36;6.35;;;5.53;;
44696;SDS011;57264;47.480;19.354;2023-04-03T05:35:02;7.00;;;5.80;;
44696;SDS011;57264;47.480;19.354;2023-04-03T05:37:27;5.43;;;4.73;;
44696;SDS011;57264;47.480;19.354;2023-04-03T05:39:53;5.87;;;4.97;;
44696;SDS011;57264;47.480;19.354;2023-04-03T05:42:19;7.40;;;6.20;;
44696;SDS011;57264;47.480;19.354;2023-04-03T05:44:44;7.70;;;5.47;;
44696;SDS011;57264;47.480;19.354;2023-04-03T05:47:12;4.85;;;4.35;;
44696;SDS011;57264;47.480;19.354;2023-04-03T05:49:38;6.57;;;4.90;;
44696;SDS011;57264;47.480;19.354;2023-04-03T05:52:06;5.43;;;4.20;;
44696;SDS011;57264;47.480;19.354;2023-04-03T05:54:42;4.95;;;4.43;;
44696;SDS011;57264;47.480;19.354;2023-04-03T05:57:09;4.93;;;4.43;;
44696;SDS011;57264;47.480;19.354;2023-04-03T05:59:34;4.67;;;4.03;;
44696;SDS011;57264;47.480;19.354;2023-04-03T06:02:00;5.03;;;3.80;;
44696;SDS011;57264;47.480;19.354;2023-04-03T06:04:26;4.37;;;3.80;;
44696;SDS011;57264;47.480;19.354;2023-04-03T06:06:52;4.43;;;4.03;;
44696;SDS011;57264;47.480;19.354;2023-04-03T06:09:21;4.55;;;3.75;;
44696;SDS011;57264;47.480;19.354;2023-04-03T06:11:48;4.18;;;3.65;;
44696;SDS011;57264;47.480;19.354;2023-04-03T06:14:14;5.50;;;4.10;;
44696;SDS011;57264;47.480;19.354;2023-04-03T06:16:40;3.87;;;3.20;;
44696;SDS011;57264;47.480;19.354;2023-04-03T06:19:06;3.47;;;3.17;;
44696;SDS011;57264;47.480;19.354;2023-04-03T06:21:34;3.63;;;3.20;;
44696;SDS011;57264;47.480;19.354;2023-04-03T06:24:01;3.75;;;3.40;;
44696;SDS011;57264;47.480;19.354;2023-04-03T06:26:27;3.75;;;3.20;;
44696;SDS011;57264;47.480;19.354;2023-04-03T06:28:53;3.90;;;3.45;;
44696;SDS011;57264;47.480;19.354;2023-04-03T06:31:19;3.20;;;2.90;;
44696;SDS011;57264;47.480;19.354;2023-04-03T06:33:45;3.50;;;3.20;;
44696;SDS011;57264;47.480;19.354;2023-04-03T06:36:10;3.63;;;3.23;;
44696;SDS011;57264;47.480;19.354;2023-04-03T06:38:36;4.75;;;3.00;;
44696;SDS011;57264;47.480;19.354;2023-04-03T06:41:02;4.13;;;3.73;;
44696;SDS011;57264;47.480;19.354;2023-04-03T06:43:27;3.43;;;3.00;;
44696;SDS011;57264;47.480;19.354;2023-04-03T06:45:53;4.80;;;3.30;;
44696;SDS011;57264;47.480;19.354;2023-04-03T06:48:19;3.30;;;3.00;;
44696;SDS011;57264;47.480;19.354;2023-04-03T06:50:44;3.67;;;3.13;;
44696;SDS011;57264;47.480;19.354;2023-04-03T06:53:10;4.60;;;3.90;;
44696;SDS011;57264;47.480;19.354;2023-04-03T06:55:37;3.95;;;3.30;;
44696;SDS011;57264;47.480;19.354;2023-04-03T06:58:02;4.00;;;3.60;;
44696;SDS011;57264;47.480;19.354;2023-04-03T07:00:29;4.70;;;4.03;;
44696;SDS011;57264;47.480;19.354;2023-04-03T07:02:55;3.80;;;3.10;;
44696;SDS011;57264;47.480;19.354;2023-04-03T07:05:22;3.92;;;3.30;;
44696;SDS011;57264;47.480;19.354;2023-04-03T07:07:49;5.95;;;3.30;;
44696;SDS011;57264;47.480;19.354;2023-04-03T07:10:15;4.88;;;3.60;;
44696;SDS011;57264;47.480;19.354;2023-04-03T07:12:41;5.65;;;3.30;;
44696;SDS011;57264;47.480;19.354;2023-04-03T07:15:07;5.90;;;3.17;;
44696;SDS011;57264;47.480;19.354;2023-04-03T07:17:33;5.90;;;3.45;;
44696;SDS011;57264;47.480;19.354;2023-04-03T07:19:59;5.13;;;3.33;;
44696;SDS011;57264;47.480;19.354;2023-04-03T07:22:25;4.20;;;3.30;;
44696;SDS011;57264;47.480;19.354;2023-04-03T07:24:50;3.67;;;3.37;;
44696;SDS011;57264;47.480;19.354;2023-04-03T07:27:16;4.03;;;3.20;;
44696;SDS011;57264;47.480;19.354;2023-04-03T07:29:43;6.75;;;3.58;;
44696;SDS011;57264;47.480;19.354;2023-04-03T07:32:09;3.22;;;2.88;;
44696;SDS011;57264;47.480;19.354;2023-04-03T07:34:36;3.95;;;3.00;;
44696;SDS011;57264;47.480;19.354;2023-04-03T07:37:02;3.27;;;2.67;;
44696;SDS011;57264;47.480;19.354;2023-04-03T07:39:28;4.88;;;3.40;;
44696;SDS011;57264;47.480;19.354;2023-04-03T07:41:54;3.33;;;2.88;;
44696;SDS011;57264;47.480;19.354;2023-04-03T07:44:23;2.88;;;2.60;;
44696;SDS011;57264;47.480;19.354;2023-04-03T07:46:49;3.35;;;3.00;;
44696;SDS011;57264;47.480;19.354;2023-04-03T07:49:16;2.85;;;2.28;;
44696;SDS011;57264;47.480;19.354;2023-04-03T07:51:43;2.20;;;1.95;;
44696;SDS011;57264;47.480;19.354;2023-04-03T07:54:09;2.25;;;1.80;;
44696;SDS011;57264;47.480;19.354;2023-04-03T07:56:35;2.10;;;1.90;;
44696;SDS011;57264;47.480;19.354;2023-04-03T07:59:01;4.43;;;2.50;;
44696;SDS011;57264;47.480;19.354;2023-04-03T08:01:28;2.60;;;2.40;;
44696;SDS011;57264;47.480;19.354;2023-04-03T08:03:54;2.45;;;2.25;;
44696;SDS011;57264;47.480;19.354;2023-04-03T08:06:19;2.60;;;2.33;;
44696;SDS011;57264;47.480;19.354;2023-04-03T08:08:45;2.30;;;2.10;;
44696;SDS011;57264;47.480;19.354;2023-04-03T08:11:12;3.35;;;2.20;;
44696;SDS011;57264;47.480;19.354;2023-04-03T08:13:37;2.33;;;2.13;;
44696;SDS011;57264;47.480;19.354;2023-04-03T08:16:07;2.77;;;2.03;;
44696;SDS011;57264;47.480;19.354;2023-04-03T08:18:34;2.20;;;2.00;;
44696;SDS011;57264;47.480;19.354;2023-04-03T08:21:00;3.27;;;2.20;;
44696;SDS011;57264;47.480;19.354;2023-04-03T08:23:25;2.83;;;2.40;;
44696;SDS011;57264;47.480;19.354;2023-04-03T08:25:51;2.77;;;1.90;;
44696;SDS011;57264;47.480;19.354;2023-04-03T08:28:18;3.03;;;2.10;;
44696;SDS011;57264;47.480;19.354;2023-04-03T08:30:44;2.27;;;2.07;;
44696;SDS011;57264;47.480;19.354;2023-04-03T08:33:11;3.63;;;2.22;;
44696;SDS011;57264;47.480;19.354;2023-04-03T08:35:40;2.10;;;1.87;;
44696;SDS011;57264;47.480;19.354;2023-04-03T08:38:06;1.85;;;1.70;;
44696;SDS011;57264;47.480;19.354;2023-04-03T08:40:33;2.03;;;1.83;;
44696;SDS011;57264;47.480;19.354;2023-04-03T08:46:01;3.40;;;2.17;;
44696;SDS011;57264;47.480;19.354;2023-04-03T08:48:31;2.05;;;1.83;;
44696;SDS011;57264;47.480;19.354;2023-04-03T08:51:05;1.98;;;1.85;;
44696;SDS011;57264;47.480;19.354;2023-04-03T08:54:04;3.28;;;2.35;;
44696;SDS011;57264;47.480;19.354;2023-04-03T08:56:30;3.10;;;2.28;;
44696;SDS011;57264;47.480;19.354;2023-04-03T08:58:59;3.35;;;2.00;;
44696;SDS011;57264;47.480;19.354;2023-04-03T09:04:05;2.30;;;1.80;;
44696;SDS011;57264;47.480;19.354;2023-04-03T09:06:36;2.85;;;1.85;;
44696;SDS011;57264;47.480;19.354;2023-04-03T09:11:57;1.27;;;1.17;;
44696;SDS011;57264;47.480;19.354;2023-04-03T09:14:31;1.50;;;1.40;;
44696;SDS011;57264;47.480;19.354;2023-04-03T09:17:21;2.05;;;1.50;;
44696;SDS011;57264;47.480;19.354;2023-04-03T09:19:54;1.40;;;1.30;;
44696;SDS011;57264;47.480;19.354;2023-04-03T09:22:28;1.50;;;1.08;;
44696;SDS011;57264;47.480;19.354;2023-04-03T09:27:45;1.20;;;1.10;;
44696;SDS011;57264;47.480;19.354;2023-04-03T09:30:18;4.28;;;1.13;;
44696;SDS011;57264;47.480;19.354;2023-04-03T09:32:51;1.92;;;1.17;;
44696;SDS011;57264;47.480;19.354;2023-04-03T09:35:28;2.00;;;1.25;;
44696;SDS011;57264;47.480;19.354;2023-04-03T09:38:01;1.13;;;0.88;;
44696;SDS011;57264;47.480;19.354;2023-04-03T09:43:38;1.33;;;1.00;;
44696;SDS011;57264;47.480;19.354;2023-04-03T09:48:58;1.20;;;0.95;;
44696;SDS011;57264;47.480;19.354;2023-04-03T09:51:29;2.25;;;1.17;;
44696;SDS011;57264;47.480;19.354;2023-04-03T09:53:56;1.13;;;1.10;;
44696;SDS011;57264;47.480;19.354;2023-04-03T10:01:27;1.20;;;1.10;;
44696;SDS011;57264;47.480;19.354;2023-04-03T10:04:17;2.10;;;1.60;;
44696;SDS011;57264;47.480;19.354;2023-04-03T10:06:48;1.80;;;1.70;;
44696;SDS011;57264;47.480;19.354;2023-04-03T10:14:40;1.95;;;1.60;;
44696;SDS011;57264;47.480;19.354;2023-04-03T10:17:42;2.20;;;1.60;;
44696;SDS011;57264;47.480;19.354;2023-04-03T10:25:43;2.97;;;1.90;;
44696;SDS011;57264;47.480;19.354;2023-04-03T10:28:29;2.35;;;1.80;;
44696;SDS011;57264;47.480;19.354;2023-04-03T10:33:37;2.95;;;1.88;;
44696;SDS011;57264;47.480;19.354;2023-04-03T10:50:46;1.60;;;1.50;;
44696;SDS011;57264;47.480;19.354;2023-04-03T10:58:56;2.28;;;2.00;;
44696;SDS011;57264;47.480;19.354;2023-04-03T11:01:43;2.08;;;1.75;;
44696;SDS011;57264;47.480;19.354;2023-04-03T11:04:13;1.65;;;1.52;;
44696;SDS011;57264;47.480;19.354;2023-04-03T11:06:49;1.58;;;1.48;;
44696;SDS011;57264;47.480;19.354;2023-04-03T11:09:24;1.58;;;1.48;;
44696;SDS011;57264;47.480;19.354;2023-04-03T11:12:00;2.03;;;1.83;;
44696;SDS011;57264;47.480;19.354;2023-04-03T11:14:34;1.90;;;1.80;;
44696;SDS011;57264;47.480;19.354;2023-04-03T11:17:05;2.30;;;1.73;;
44696;SDS011;57264;47.480;19.354;2023-04-03T11:19:44;1.40;;;1.30;;
44696;SDS011;57264;47.480;19.354;2023-04-03T11:22:21;1.45;;;1.20;;
44696;SDS011;57264;47.480;19.354;2023-04-03T11:24:51;1.88;;;1.33;;
44696;SDS011;57264;47.480;19.354;2023-04-03T11:27:30;1.98;;;1.63;;
44696;SDS011;57264;47.480;19.354;2023-04-03T11:30:05;1.73;;;1.63;;
44696;SDS011;57264;47.480;19.354;2023-04-03T11:32:41;2.33;;;1.50;;
44696;SDS011;57264;47.480;19.354;2023-04-03T11:35:18;1.65;;;1.20;;
44696;SDS011;57264;47.480;19.354;2023-04-03T11:37:45;1.85;;;1.48;;
44696;SDS011;57264;47.480;19.354;2023-04-03T11:42:46;0.90;;;0.90;;
44696;SDS011;57264;47.480;19.354;2023-04-03T11:47:55;1.38;;;1.27;;
44696;SDS011;57264;47.480;19.354;2023-04-03T12:21:20;1.58;;;1.40;;
44696;SDS011;57264;47.480;19.354;2023-04-03T12:26:46;1.83;;;1.40;;
44696;SDS011;57264;47.480;19.354;2023-04-03T12:45:45;2.25;;;0.90;;
44696;SDS011;57264;47.480;19.354;2023-04-03T12:48:18;0.90;;;0.90;;
44696;SDS011;57264;47.480;19.354;2023-04-03T12:50:50;0.80;;;0.80;;
44696;SDS011;57264;47.480;19.354;2023-04-03T12:53:17;1.77;;;1.20;;
44696;SDS011;57264;47.480;19.354;2023-04-03T12:55:53;1.00;;;0.88;;
44696;SDS011;57264;47.480;19.354;2023-04-03T12:58:24;1.20;;;1.02;;
44696;SDS011;57264;47.480;19.354;2023-04-03T13:03:26;1.10;;;1.00;;
44696;SDS011;57264;47.480;19.354;2023-04-03T13:05:53;1.05;;;1.00;;
44696;SDS011;57264;47.480;19.354;2023-04-03T13:08:25;2.35;;;1.00;;
44696;SDS011;57264;47.480;19.354;2023-04-03T13:10:56;1.87;;;1.20;;
44696;SDS011;57264;47.480;19.354;2023-04-03T13:13:26;1.23;;;1.13;;
44696;SDS011;57264;47.480;19.354;2023-04-03T13:15:53;0.95;;;0.95;;
44696;SDS011;57264;47.480;19.354;2023-04-03T13:18:41;1.30;;;0.82;;
44696;SDS011;57264;47.480;19.354;2023-04-03T13:23:45;0.98;;;0.90;;
44696;SDS011;57264;47.480;19.354;2023-04-03T13:26:15;0.90;;;0.90;;
44696;SDS011;57264;47.480;19.354;2023-04-03T13:28:44;0.93;;;0.93;;
44696;SDS011;57264;47.480;19.354;2023-04-03T13:33:39;0.90;;;0.90;;
44696;SDS011;57264;47.480;19.354;2023-04-03T13:36:17;1.17;;;1.00;;
44696;SDS011;57264;47.480;19.354;2023-04-03T13:38:57;1.33;;;1.10;;
44696;SDS011;57264;47.480;19.354;2023-04-03T13:41:43;1.17;;;1.08;;
44696;SDS011;57264;47.480;19.354;2023-04-03T13:44:30;2.50;;;1.20;;
44696;SDS011;57264;47.480;19.354;2023-04-03T13:47:18;1.13;;;1.00;;
44696;SDS011;57264;47.480;19.354;2023-04-03T13:53:22;7.35;;;1.00;;
44696;SDS011;57264;47.480;19.354;2023-04-03T13:55:29;2.00;;;1.10;;
44696;SDS011;57264;47.480;19.354;2023-04-03T14:03:58;2.47;;;1.02;;
44696;SDS011;57264;47.480;19.354;2023-04-03T14:06:26;2.00;;;0.88;;
44696;SDS011;57264;47.480;19.354;2023-04-03T14:08:52;1.00;;;0.90;;
44696;SDS011;57264;47.480;19.354;2023-04-03T14:11:22;1.80;;;0.70;;
44696;SDS011;57264;47.480;19.354;2023-04-03T14:13:54;1.13;;;0.90;;
44696;SDS011;57264;47.480;19.354;2023-04-03T14:16:26;1.38;;;1.08;;
44696;SDS011;57264;47.480;19.354;2023-04-03T14:18:54;0.95;;;0.80;;
44696;SDS011;57264;47.480;19.354;2023-04-03T14:21:21;0.80;;;0.80;;
44696;SDS011;57264;47.480;19.354;2023-04-03T14:23:47;0.90;;;0.75;;
44696;SDS011;57264;47.480;19.354;2023-04-03T14:29:04;0.90;;;0.80;;
44696;SDS011;57264;47.480;19.354;2023-04-03T14:31:30;0.83;;;0.83;;
44696;SDS011;57264;47.480;19.354;2023-04-03T14:33:55;0.70;;;0.70;;
44696;SDS011;57264;47.480;19.354;2023-04-03T14:36:22;1.13;;;0.73;;
44696;SDS011;57264;47.480;19.354;2023-04-03T14:38:52;0.95;;;0.70;;
44696;SDS011;57264;47.480;19.354;2023-04-03T14:41:21;0.85;;;0.80;;
44696;SDS011;57264;47.480;19.354;2023-04-03T14:43:49;1.00;;;0.90;;
44696;SDS011;57264;47.480;19.354;2023-04-03T14:46:38;0.90;;;0.90;;
44696;SDS011;57264;47.480;19.354;2023-04-03T14:49:03;0.85;;;0.80;;
44696;SDS011;57264;47.480;19.354;2023-04-03T14:51:36;1.80;;;1.00;;
44696;SDS011;57264;47.480;19.354;2023-04-03T14:54:03;1.73;;;0.85;;
44696;SDS011;57264;47.480;19.354;2023-04-03T14:56:35;1.20;;;1.10;;
44696;SDS011;57264;47.480;19.354;2023-04-03T14:59:01;0.77;;;0.73;;
44696;SDS011;57264;47.480;19.354;2023-04-03T15:01:27;1.38;;;1.27;;
44696;SDS011;57264;47.480;19.354;2023-04-03T15:03:54;1.45;;;0.90;;
44696;SDS011;57264;47.480;19.354;2023-04-03T15:06:20;0.90;;;0.90;;
44696;SDS011;57264;47.480;19.354;2023-04-03T15:08:46;1.50;;;0.83;;
44696;SDS011;57264;47.480;19.354;2023-04-03T15:11:13;1.38;;;1.00;;
44696;SDS011;57264;47.480;19.354;2023-04-03T15:13:40;1.00;;;0.90;;
44696;SDS011;57264;47.480;19.354;2023-04-03T15:16:10;0.80;;;0.80;;
44696;SDS011;57264;47.480;19.354;2023-04-03T15:18:41;1.73;;;0.90;;
44696;SDS011;57264;47.480;19.354;2023-04-03T15:21:07;2.78;;;0.88;;
44696;SDS011;57264;47.480;19.354;2023-04-03T15:23:32;3.63;;;1.10;;
44696;SDS011;57264;47.480;19.354;2023-04-03T15:25:58;0.67;;;0.63;;
44696;SDS011;57264;47.480;19.354;2023-04-03T15:28:40;0.80;;;0.70;;
44696;SDS011;57264;47.480;19.354;2023-04-03T15:31:07;1.13;;;1.02;;
44696;SDS011;57264;47.480;19.354;2023-04-03T15:33:34;2.42;;;0.95;;
44696;SDS011;57264;47.480;19.354;2023-04-03T15:36:00;0.98;;;0.85;;
44696;SDS011;57264;47.480;19.354;2023-04-03T15:38:26;1.50;;;1.20;;
44696;SDS011;57264;47.480;19.354;2023-04-03T15:40:51;1.90;;;1.37;;
44696;SDS011;57264;47.480;19.354;2023-04-03T15:43:17;1.30;;;1.13;;
44696;SDS011;57264;47.480;19.354;2023-04-03T15:45:43;2.17;;;1.10;;
44696;SDS011;57264;47.480;19.354;2023-04-03T15:48:10;1.63;;;1.38;;
44696;SDS011;57264;47.480;19.354;2023-04-03T15:50:37;2.58;;;1.55;;
44696;SDS011;57264;47.480;19.354;2023-04-03T15:53:03;1.73;;;1.30;;
44696;SDS011;57264;47.480;19.354;2023-04-03T15:55:29;1.60;;;1.40;;
44696;SDS011;57264;47.480;19.354;2023-04-03T15:57:57;2.05;;;1.80;;
44696;SDS011;57264;47.480;19.354;2023-04-03T16:00:23;2.20;;;1.67;;
44696;SDS011;57264;47.480;19.354;2023-04-03T16:02:52;2.55;;;2.00;;
44696;SDS011;57264;47.480;19.354;2023-04-03T16:05:20;3.97;;;1.90;;
44696;SDS011;57264;47.480;19.354;2023-04-03T16:07:46;2.45;;;1.88;;
44696;SDS011;57264;47.480;19.354;2023-04-03T16:10:13;2.43;;;1.70;;
44696;SDS011;57264;47.480;19.354;2023-04-03T16:12:41;2.58;;;1.85;;
44696;SDS011;57264;47.480;19.354;2023-04-03T16:15:07;2.67;;;1.90;;
44696;SDS011;57264;47.480;19.354;2023-04-03T16:17:34;1.80;;;1.60;;
44696;SDS011;57264;47.480;19.354;2023-04-03T16:20:01;2.63;;;1.40;;
44696;SDS011;57264;47.480;19.354;2023-04-03T16:22:28;1.90;;;1.48;;
44696;SDS011;57264;47.480;19.354;2023-04-03T16:24:54;2.20;;;1.40;;
44696;SDS011;57264;47.480;19.354;2023-04-03T16:27:20;2.47;;;1.77;;
44696;SDS011;57264;47.480;19.354;2023-04-03T16:29:47;1.90;;;1.35;;
44696;SDS011;57264;47.480;19.354;2023-04-03T16:32:13;2.53;;;1.80;;
44696;SDS011;57264;47.480;19.354;2023-04-03T16:34:39;2.35;;;1.65;;
44696;SDS011;57264;47.480;19.354;2023-04-03T16:37:05;3.05;;;2.00;;
44696;SDS011;57264;47.480;19.354;2023-04-03T16:39:33;1.88;;;1.67;;
44696;SDS011;57264;47.480;19.354;2023-04-03T16:42:00;1.48;;;1.35;;
44696;SDS011;57264;47.480;19.354;2023-04-03T16:44:29;2.97;;;1.40;;
44696;SDS011;57264;47.480;19.354;2023-04-03T16:46:54;3.60;;;1.70;;
44696;SDS011;57264;47.480;19.354;2023-04-03T16:49:20;2.73;;;1.60;;
44696;SDS011;57264;47.480;19.354;2023-04-03T16:51:47;1.67;;;1.57;;
44696;SDS011;57264;47.480;19.354;2023-04-03T16:54:13;2.15;;;1.67;;
44696;SDS011;57264;47.480;19.354;2023-04-03T16:56:39;1.60;;;1.50;;
44696;SDS011;57264;47.480;19.354;2023-04-03T16:59:05;2.23;;;1.70;;